Time;durP1;ratioP1;P1;durP2;ratioP2;P2;SDS_P1;SDS_P2;PMS_P1;PMS_P2;Temp;Humidity;BMP_temperature;BMP_pressure;BME280_temperature;BME280_humidity;BME280_pressure;Samples;Min_cycle;Max_cycle;Signal;HPM_P1;HPM_P2
2021/03/26 00:02:00;;;;;;;2.80;1.73;;;10.70;95.60;;;;;;5065029;28;20074;-57
2021/03/26 00:04:26;;;;;;;1.85;1.45;;;10.70;95.70;;;;;;5063328;28;20016;-58
2021/03/26 00:06:53;;;;;;;3.50;2.20;;;10.60;95.90;;;;;;5063510;28;20031;-58
2021/03/26 00:09:26;;;;;;;2.15;1.75;;;10.50;96.50;;;;;;5065336;28;20036;-57
2021/03/26 00:11:56;;;;;;;2.53;1.67;;;10.50;96.80;;;;;;5065196;28;20028;-57
2021/03/26 00:14:22;;;;;;;2.65;1.67;;;10.60;96.40;;;;;;5064772;28;20020;-58
2021/03/26 00:16:48;;;;;;;2.83;2.10;;;10.60;96.30;;;;;;5065600;28;20081;-57
2021/03/26 00:19:17;;;;;;;2.03;1.45;;;10.60;96.40;;;;;;5063864;28;20560;-57
2021/03/26 00:21:43;;;;;;;4.10;1.88;;;10.60;96.20;;;;;;5064010;28;20040;-58
2021/03/26 00:24:10;;;;;;;4.25;2.25;;;10.50;96.50;;;;;;5064544;28;20028;-58
2021/03/26 00:26:35;;;;;;;3.17;2.28;;;10.60;96.40;;;;;;5064891;28;20142;-58
2021/03/26 00:29:02;;;;;;;4.63;2.20;;;10.70;96.30;;;;;;5064060;28;20504;-58
2021/03/26 00:31:27;;;;;;;3.75;2.38;;;10.70;96.20;;;;;;5060327;28;20540;-57
2021/03/26 00:33:53;;;;;;;4.35;2.30;;;10.60;96.30;;;;;;5051789;28;20040;-50
2021/03/26 00:36:19;;;;;;;3.85;2.45;;;10.90;96.00;;;;;;5046537;28;20036;-52
2021/03/26 00:38:44;;;;;;;3.33;2.42;;;10.90;96.00;;;;;;5047673;28;20104;-53
2021/03/26 00:41:10;;;;;;;3.70;3.00;;;10.90;95.90;;;;;;5053022;28;20104;-53
2021/03/26 00:43:36;;;;;;;4.68;2.80;;;11.00;95.70;;;;;;5065978;28;20074;-53
2021/03/26 00:46:02;;;;;;;2.95;2.35;;;10.80;95.90;;;;;;5066162;28;20032;-53
2021/03/26 00:48:28;;;;;;;3.67;2.20;;;10.70;96.10;;;;;;5066304;28;20843;-51
2021/03/26 00:50:57;;;;;;;4.10;2.35;;;10.60;96.40;;;;;;5065760;28;20086;-51
2021/03/26 00:53:27;;;;;;;3.97;2.38;;;10.50;96.80;;;;;;5066387;28;20066;-52
2021/03/26 00:55:54;;;;;;;3.45;2.13;;;10.50;96.90;;;;;;5064203;28;20115;-52
2021/03/26 00:58:21;;;;;;;3.42;1.90;;;10.70;96.80;;;;;;5066325;28;20072;-53
2021/03/26 01:00:47;;;;;;;3.63;2.45;;;10.70;96.70;;;;;;5066934;28;20612;-53
2021/03/26 01:03:13;;;;;;;4.30;2.60;;;10.90;96.40;;;;;;5066199;28;20524;-54
2021/03/26 01:05:43;;;;;;;4.30;2.70;;;11.00;96.30;;;;;;5066339;28;20055;-52
2021/03/26 01:08:09;;;;;;;4.32;2.95;;;10.90;96.20;;;;;;5064073;28;21070;-52
2021/03/26 01:10:45;;;;;;;3.95;2.83;;;11.00;96.20;;;;;;5066566;28;20021;-53
2021/03/26 01:13:11;;;;;;;4.45;3.05;;;10.90;96.40;;;;;;5066322;28;20036;-52
2021/03/26 01:15:38;;;;;;;4.25;3.15;;;10.80;96.40;;;;;;5066148;28;20383;-52
2021/03/26 01:18:07;;;;;;;5.05;3.70;;;11.00;96.60;;;;;;5064039;28;20033;-51
2021/03/26 01:20:37;;;;;;;3.83;2.78;;;10.80;96.60;;;;;;5066501;28;20028;-52
2021/03/26 01:23:05;;;;;;;4.97;3.28;;;10.50;97.10;;;;;;5064802;28;20078;-52
2021/03/26 01:25:36;;;;;;;4.55;3.13;;;10.50;97.30;;;;;;5066640;28;20033;-52
2021/03/26 01:28:03;;;;;;;5.45;3.53;;;10.60;97.40;;;;;;5065793;28;20016;-53
2021/03/26 01:30:31;;;;;;;5.38;3.08;;;10.60;97.10;;;;;;5066755;28;20039;-50
2021/03/26 01:32:58;;;;;;;4.65;2.90;;;10.60;96.80;;;;;;5047054;28;20017;-52
2021/03/26 01:35:24;;;;;;;3.88;2.92;;;10.60;96.60;;;;;;5050007;28;20044;-52
2021/03/26 01:37:50;;;;;;;5.97;3.17;;;10.50;96.80;;;;;;5049937;28;20029;-49
2021/03/26 01:40:25;;;;;;;4.50;2.88;;;10.40;97.00;;;;;;5049843;28;20033;-51
2021/03/26 01:42:51;;;;;;;5.57;3.22;;;10.40;97.30;;;;;;5048766;28;20429;-53
2021/03/26 01:45:22;;;;;;;4.50;3.17;;;10.40;97.50;;;;;;5049987;28;20488;-52
2021/03/26 01:47:52;;;;;;;5.13;2.80;;;10.60;97.20;;;;;;5049838;28;20079;-51
2021/03/26 01:50:19;;;;;;;4.60;2.75;;;10.70;97.00;;;;;;5049597;28;20032;-53
2021/03/26 01:52:46;;;;;;;5.13;3.55;;;10.60;97.10;;;;;;5049450;28;20040;-52
2021/03/26 01:55:20;;;;;;;4.13;2.70;;;10.60;97.00;;;;;;5049105;28;20558;-53
2021/03/26 01:57:47;;;;;;;5.43;2.90;;;10.40;97.60;;;;;;5050426;28;20471;-52
2021/03/26 02:00:21;;;;;;;5.55;3.30;;;10.40;97.30;;;;;;5049359;28;20055;-53
2021/03/26 02:02:47;;;;;;;;;;;10.50;96.80;;;;;;5050148;28;20029;-53
2021/03/26 02:05:18;;;;;;;4.28;2.90;;;10.40;97.00;;;;;;5049367;28;19909;-53
2021/03/26 02:07:44;;;;;;;7.75;3.03;;;10.40;97.30;;;;;;5049552;28;20487;-50
2021/03/26 02:10:10;;;;;;;4.85;3.13;;;10.40;97.50;;;;;;5049619;28;20036;-50
2021/03/26 02:12:36;;;;;;;5.65;3.33;;;10.10;98.20;;;;;;5049566;28;20028;-53
2021/03/26 02:15:14;;;;;;;6.25;3.40;;;10.00;98.50;;;;;;5049219;28;20411;-52
2021/03/26 02:17:40;;;;;;;4.57;3.15;;;10.10;98.30;;;;;;5049362;28;20071;-52
2021/03/26 02:20:22;;;;;;;6.10;3.40;;;10.10;98.50;;;;;;5049324;28;20053;-51
2021/03/26 02:22:48;;;;;;;5.90;3.17;;;10.30;98.20;;;;;;5049492;28;20048;-52
2021/03/26 02:25:18;;;;;;;4.47;2.83;;;10.50;98.00;;;;;;5048811;28;20053;-52
2021/03/26 02:27:44;;;;;;;4.90;2.90;;;10.40;97.90;;;;;;5049224;28;20025;-52
2021/03/26 02:30:20;;;;;;;6.63;3.92;;;10.30;98.10;;;;;;5047613;28;20024;-53
2021/03/26 02:32:47;;;;;;;5.43;3.50;;;10.30;98.50;;;;;;5068079;28;20024;-51
2021/03/26 02:35:12;;;;;;;6.38;3.80;;;10.20;98.50;;;;;;5068369;28;20033;-53
2021/03/26 02:38:00;;;;;;;5.20;3.17;;;10.10;98.60;;;;;;5065311;28;20037;-53
2021/03/26 02:40:31;;;;;;;5.10;3.33;;;10.00;98.40;;;;;;5049300;28;20492;-51
2021/03/26 02:43:11;;;;;;;4.82;3.10;;;9.90;98.40;;;;;;5049580;28;20028;-50
2021/03/26 02:45:46;;;;;;;4.13;2.80;;;9.90;98.50;;;;;;5047933;28;20025;-50
2021/03/26 02:48:19;;;;;;;6.93;2.80;;;9.60;98.60;;;;;;5048363;28;20024;-53
2021/03/26 02:51:04;;;;;;;3.75;2.75;;;9.20;99.00;;;;;;5048185;28;20036;-53
2021/03/26 02:53:30;;;;;;;6.78;2.83;;;9.20;99.80;;;;;;5049458;28;20028;-53
2021/03/26 02:56:11;;;;;;;5.72;3.10;;;9.00;99.90;;;;;;5048523;28;20407;-51
2021/03/26 02:58:49;;;;;;;3.38;2.70;;;9.10;99.90;;;;;;5048752;28;20032;-50
2021/03/26 03:01:36;;;;;;;6.32;3.03;;;9.30;99.90;;;;;;5048319;28;20029;-52
2021/03/26 03:04:10;;;;;;;5.40;2.83;;;9.30;99.90;;;;;;5047987;28;20021;-53
2021/03/26 03:06:43;;;;;;;4.90;2.70;;;9.30;99.90;;;;;;5048500;28;20037;-53
2021/03/26 03:09:11;;;;;;;4.22;2.55;;;9.30;99.90;;;;;;5047976;28;20426;-53
2021/03/26 03:11:44;;;;;;;3.13;2.30;;;9.40;99.90;;;;;;5067810;28;20058;-50
2021/03/26 03:14:21;;;;;;;4.55;2.60;;;9.30;99.90;;;;;;5068110;28;20453;-53
2021/03/26 03:17:07;;;;;;;4.25;3.03;;;9.30;99.90;;;;;;5050867;28;20036;-52
2021/03/26 03:19:36;;;;;;;3.55;2.70;;;9.20;99.90;;;;;;5048195;28;20017;-51
2021/03/26 03:22:13;;;;;;;4.38;2.95;;;9.40;99.90;;;;;;5048294;28;20025;-51
2021/03/26 03:24:45;;;;;;;4.65;2.78;;;9.50;99.60;;;;;;5054750;28;20415;-51
2021/03/26 03:27:55;;;;;;;5.38;3.47;;;9.50;99.80;;;;;;5067803;28;20028;-53
2021/03/26 03:30:33;;;;;;;5.45;3.65;;;9.50;99.60;;;;;;5064203;28;20043;-50
2021/03/26 03:33:06;;;;;;;5.55;3.28;;;9.30;99.90;;;;;;5048343;28;20033;-53
2021/03/26 03:35:40;;;;;;;5.60;3.00;;;9.10;99.90;;;;;;5047988;28;20685;-51
2021/03/26 03:38:09;;;;;;;4.30;2.75;;;9.00;99.90;;;;;;5047874;28;20025;-50
2021/03/26 03:40:40;;;;;;;3.65;2.67;;;9.00;99.90;;;;;;5047894;28;20021;-53
2021/03/26 03:43:17;;;;;;;5.18;2.80;;;9.00;99.90;;;;;;5047703;28;20049;-52
2021/03/26 03:46:07;;;;;;;3.70;2.70;;;9.00;99.90;;;;;;5047485;28;20155;-50
2021/03/26 03:48:40;;;;;;;4.57;3.03;;;9.20;99.90;;;;;;5047522;28;20021;-49
2021/03/26 03:51:39;;;;;;;5.53;3.00;;;9.20;99.90;;;;;;5047084;28;20609;-51
2021/03/26 03:54:16;;;;;;;6.53;3.17;;;9.10;99.90;;;;;;5046891;28;20475;-54
2021/03/26 03:56:50;;;;;;;3.70;2.60;;;8.90;99.90;;;;;;5047511;28;20385;-53
2021/03/26 03:59:37;;;;;;;3.58;2.80;;;8.70;99.90;;;;;;5047367;28;20032;-50
2021/03/26 04:02:07;;;;;;;3.35;2.50;;;8.70;99.90;;;;;;5046916;28;20558;-52
2021/03/26 04:04:45;;;;;;;4.93;3.13;;;8.70;99.90;;;;;;5045743;28;20061;-49
2021/03/26 04:07:16;;;;;;;4.28;2.67;;;8.90;99.90;;;;;;5046984;28;20095;-53
2021/03/26 04:09:58;;;;;;;4.63;3.45;;;9.20;99.90;;;;;;5047024;28;20029;-51
2021/03/26 04:12:37;;;;;;;5.70;3.20;;;9.40;99.90;;;;;;5047383;28;20029;-52
2021/03/26 04:15:30;;;;;;;4.05;3.38;;;9.20;99.90;;;;;;5047041;28;20024;-50
2021/03/26 04:17:59;;;;;;;4.78;3.65;;;9.20;99.90;;;;;;5047421;28;20032;-51
2021/03/26 04:20:40;;;;;;;4.85;3.45;;;9.20;99.90;;;;;;5047105;28;20021;-51
2021/03/26 04:23:15;;;;;;;5.28;3.97;;;9.10;99.90;;;;;;5047009;28;20376;-53
2021/03/26 04:25:48;;;;;;;4.50;3.20;;;8.90;99.90;;;;;;5047141;28;20035;-50
2021/03/26 04:28:38;;;;;;;5.50;3.50;;;8.90;99.90;;;;;;5046794;28;20024;-53
2021/03/26 04:31:08;;;;;;;5.25;3.50;;;9.10;99.90;;;;;;5046139;28;20029;-53
2021/03/26 04:33:34;;;;;;;4.80;3.33;;;9.40;99.90;;;;;;5046905;28;20122;-52
2021/03/26 04:36:04;;;;;;;6.05;3.50;;;9.40;99.90;;;;;;5047136;28;20038;-53
2021/03/26 04:38:44;;;;;;;5.60;3.13;;;9.40;99.90;;;;;;5063327;28;20156;-52
2021/03/26 04:41:44;;;;;;;4.85;3.58;;;9.20;99.90;;;;;;5066631;28;20132;-53
2021/03/26 04:44:22;;;;;;;6.13;3.83;;;9.20;99.90;;;;;;5064811;28;20044;-51
2021/03/26 04:47:04;;;;;;;7.20;4.30;;;9.00;99.90;;;;;;5066415;28;20112;-50
2021/03/26 04:49:36;;;;;;;6.20;4.00;;;9.00;99.90;;;;;;5067209;28;20039;-52
2021/03/26 04:52:06;;;;;;;7.00;3.97;;;9.00;99.90;;;;;;5065874;28;20100;-51
2021/03/26 04:54:39;;;;;;;6.82;4.13;;;9.00;99.90;;;;;;5066391;28;20024;-52
2021/03/26 04:57:21;;;;;;;7.15;4.13;;;8.60;99.90;;;;;;5065942;28;20017;-50
2021/03/26 05:00:16;;;;;;;6.22;4.13;;;8.70;99.90;;;;;;5066431;28;20111;-50
2021/03/26 05:02:46;;;;;;;;;;;8.70;99.90;;;;;;5066175;28;20029;-52
2021/03/26 05:05:13;;;;;;;6.10;3.60;;;8.60;99.90;;;;;;5058418;28;20043;-53
2021/03/26 05:07:44;;;;;;;3.78;3.00;;;8.60;99.90;;;;;;5045797;28;20036;-49
2021/03/26 05:10:15;;;;;;;17.42;11.55;;;8.80;99.90;;;;;;5046180;28;20025;-53
2021/03/26 05:12:45;;;;;;;12.52;7.90;;;8.60;99.90;;;;;;5046510;28;20032;-53
2021/03/26 05:15:22;;;;;;;11.52;7.13;;;8.40;99.90;;;;;;5046075;28;20028;-53
2021/03/26 05:18:09;;;;;;;11.15;7.28;;;8.70;99.90;;;;;;5046051;28;20029;-53
2021/03/26 05:20:52;;;;;;;11.02;5.82;;;8.70;99.90;;;;;;5045004;28;20537;-53
2021/03/26 05:23:26;;;;;;;6.65;4.25;;;8.90;99.90;;;;;;5046170;28;20031;-52
2021/03/26 05:25:57;;;;;;;5.82;4.25;;;8.90;99.90;;;;;;5045781;28;20023;-53
2021/03/26 05:28:33;;;;;;;4.95;3.85;;;8.90;99.90;;;;;;5046202;28;20036;-52
2021/03/26 05:31:31;;;;;;;5.43;3.67;;;8.90;99.90;;;;;;5047303;28;20056;-51
2021/03/26 05:34:04;;;;;;;6.47;4.00;;;9.00;99.90;;;;;;5046531;28;20383;-52
2021/03/26 05:36:38;;;;;;;5.68;3.60;;;9.10;99.90;;;;;;5046512;28;20021;-53
2021/03/26 05:39:18;;;;;;;6.55;4.13;;;9.20;99.90;;;;;;5046150;28;20037;-53
2021/03/26 05:42:06;;;;;;;6.53;4.53;;;9.10;99.90;;;;;;5046226;28;20044;-53
2021/03/26 05:45:09;;;;;;;5.82;4.65;;;9.00;99.90;;;;;;5045806;28;20036;-52
2021/03/26 05:48:05;;;;;;;8.20;4.65;;;8.80;99.90;;;;;;5045829;28;20064;-52
2021/03/26 05:50:55;;;;;;;8.15;4.85;;;8.70;99.90;;;;;;5046108;28;20042;-52
2021/03/26 05:53:37;;;;;;;6.82;4.25;;;8.70;99.90;;;;;;5045834;28;20928;-52
2021/03/26 05:56:17;;;;;;;9.18;5.38;;;8.60;99.90;;;;;;5045646;28;20029;-51
2021/03/26 05:59:03;;;;;;;8.40;5.47;;;8.60;99.90;;;;;;5045882;28;20045;-50
2021/03/26 06:01:44;;;;;;;6.32;5.03;;;8.40;99.90;;;;;;5046403;28;20420;-51
2021/03/26 06:04:22;;;;;;;12.20;6.65;;;8.20;99.90;;;;;;5045587;28;20060;-51
2021/03/26 06:06:55;;;;;;;10.32;5.55;;;8.30;99.90;;;;;;5045619;28;20035;-51
2021/03/26 06:10:09;;;;;;;7.60;5.05;;;8.40;99.90;;;;;;5045611;28;20221;-53
2021/03/26 06:13:13;;;;;;;6.88;5.10;;;8.50;99.90;;;;;;5060898;28;20033;-53
2021/03/26 06:16:00;;;;;;;7.93;4.57;;;8.70;99.90;;;;;;5045771;28;20126;-52
2021/03/26 06:19:04;;;;;;;6.63;4.65;;;8.60;99.90;;;;;;5046338;28;20029;-53
2021/03/26 06:21:47;;;;;;;8.27;4.18;;;8.40;99.90;;;;;;5049814;28;20033;-52
2021/03/26 06:24:51;;;;;;;8.27;4.63;;;8.30;99.90;;;;;;5048982;28;20482;-52
2021/03/26 06:27:25;;;;;;;7.53;4.07;;;8.40;99.90;;;;;;5049064;28;20538;-50
2021/03/26 06:30:06;;;;;;;;;;;8.40;99.90;;;;;;5049493;28;20039;-52
2021/03/26 06:33:09;;;;;;;5.72;4.45;;;8.40;99.90;;;;;;5049087;28;19905;-50
2021/03/26 06:35:57;;;;;;;6.68;4.55;;;8.40;99.90;;;;;;5049056;28;20063;-52
2021/03/26 06:38:43;;;;;;;8.27;5.68;;;8.50;99.90;;;;;;5048810;28;20078;-52
2021/03/26 06:41:42;;;;;;;8.25;5.80;;;8.60;99.90;;;;;;5048908;28;20033;-52
2021/03/26 06:44:10;;;;;;;8.82;6.05;;;8.80;99.90;;;;;;5048903;28;20021;-51
2021/03/26 06:46:52;;;;;;;9.88;6.80;;;9.10;99.90;;;;;;5048312;28;20052;-53
2021/03/26 06:49:18;;;;;;;9.30;5.80;;;9.30;99.90;;;;;;5047086;28;20481;-52
2021/03/26 06:52:11;;;;;;;8.45;5.25;;;9.20;99.90;;;;;;5048314;28;20033;-50
2021/03/26 06:55:00;;;;;;;8.15;4.93;;;9.30;99.90;;;;;;5048877;28;20021;-52
2021/03/26 06:57:32;;;;;;;7.25;4.60;;;9.30;99.90;;;;;;5049149;28;20051;-51
2021/03/26 07:00:18;;;;;;;7.00;4.75;;;9.50;99.90;;;;;;5048913;28;20017;-51
2021/03/26 07:03:13;;;;;;;6.70;4.60;;;9.70;99.90;;;;;;5048468;28;20021;-53
2021/03/26 07:06:16;;;;;;;8.30;5.07;;;9.80;99.90;;;;;;5053258;28;20633;-53
2021/03/26 07:09:00;;;;;;;7.32;4.10;;;9.90;99.90;;;;;;5048243;28;20536;-53
2021/03/26 07:11:43;;;;;;;6.85;4.20;;;9.60;99.90;;;;;;5048534;28;20021;-51
2021/03/26 07:14:34;;;;;;;6.57;4.17;;;9.80;99.90;;;;;;5047672;28;20506;-53
2021/03/26 07:17:09;;;;;;;6.75;3.78;;;10.00;99.90;;;;;;5048409;28;20056;-52
2021/03/26 07:20:12;;;;;;;5.72;3.80;;;10.00;99.90;;;;;;5048611;28;20033;-50
2021/03/26 07:22:46;;;;;;;5.38;3.63;;;10.20;99.90;;;;;;5048404;28;20384;-53
2021/03/26 07:25:44;;;;;;;6.50;4.10;;;10.30;99.90;;;;;;5048018;28;20037;-51
2021/03/26 07:28:37;;;;;;;6.20;3.95;;;10.40;99.90;;;;;;5047695;28;20044;-50
2021/03/26 07:31:03;;;;;;;4.50;3.30;;;10.50;99.90;;;;;;5050769;28;20026;-51
2021/03/26 07:33:35;;;;;;;5.35;3.50;;;10.60;99.90;;;;;;5048675;28;20040;-50
2021/03/26 07:36:10;;;;;;;5.65;3.38;;;10.60;99.90;;;;;;5047325;28;20024;-53
2021/03/26 07:38:42;;;;;;;4.35;3.08;;;10.80;99.90;;;;;;5046520;28;20430;-50
2021/03/26 07:41:29;;;;;;;4.03;3.08;;;10.90;99.90;;;;;;5047683;28;20040;-52
2021/03/26 07:44:22;;;;;;;6.45;2.72;;;10.90;99.90;;;;;;5047509;28;20036;-53
2021/03/26 07:47:49;;;;;;;4.57;3.15;;;11.00;99.90;;;;;;5047678;28;20025;-53
2021/03/26 07:50:23;;;;;;;4.10;2.80;;;11.00;99.90;;;;;;5012703;28;20094;-53
2021/03/26 07:53:29;;;;;;;3.80;2.70;;;11.00;99.90;;;;;;5047529;28;20040;-51
2021/03/26 07:56:33;;;;;;;3.75;2.65;;;11.20;99.90;;;;;;5047353;28;20032;-53
2021/03/26 07:59:10;;;;;;;4.72;2.78;;;11.30;99.90;;;;;;5047689;28;20473;-52
2021/03/26 08:01:55;;;;;;;5.90;2.95;;;11.30;99.90;;;;;;5050906;28;20029;-50
2021/03/26 08:04:40;;;;;;;3.35;2.38;;;11.20;99.90;;;;;;5047308;28;20416;-52
2021/03/26 08:07:43;;;;;;;4.05;2.60;;;11.40;99.90;;;;;;5052081;28;20025;-53
2021/03/26 08:10:27;;;;;;;2.65;2.25;;;11.50;99.90;;;;;;5049111;28;20098;-52
2021/03/26 08:13:02;;;;;;;2.63;1.98;;;11.70;99.90;;;;;;5051092;28;20474;-54
2021/03/26 08:15:48;;;;;;;2.70;2.20;;;11.70;99.90;;;;;;5064674;28;20029;-53
2021/03/26 08:18:37;;;;;;;2.80;2.20;;;11.80;99.90;;;;;;5057301;28;20044;-52
2021/03/26 08:21:27;;;;;;;2.33;1.63;;;12.00;99.90;;;;;;5049125;28;20104;-52
2021/03/26 08:24:23;;;;;;;2.53;1.80;;;12.30;99.90;;;;;;5053038;28;20044;-53
2021/03/26 08:27:19;;;;;;;3.47;2.08;;;12.40;99.90;;;;;;5055526;28;20138;-52
2021/03/26 08:30:05;;;;;;;2.20;1.80;;;12.50;99.90;;;;;;5046134;28;20025;-52
2021/03/26 08:32:40;;;;;;;2.88;2.30;;;12.30;99.90;;;;;;5054130;28;20038;-52
2021/03/26 08:35:31;;;;;;;3.17;2.10;;;12.30;99.90;;;;;;5053449;28;20042;-52
2021/03/26 08:38:11;;;;;;;3.92;2.20;;;12.50;99.90;;;;;;5064515;28;20074;-52
2021/03/26 08:40:57;;;;;;;2.90;1.75;;;12.50;99.90;;;;;;5065288;28;20107;-53
2021/03/26 08:43:26;;;;;;;3.95;2.00;;;12.50;99.90;;;;;;5064533;28;20051;-51
2021/03/26 08:45:59;;;;;;;3.03;1.98;;;12.70;99.90;;;;;;5065227;28;20037;-53
2021/03/26 08:49:09;;;;;;;2.55;1.73;;;12.70;99.40;;;;;;5064973;28;20025;-52
2021/03/26 08:51:50;;;;;;;3.85;1.70;;;12.80;99.70;;;;;;5063648;28;20067;-52
2021/03/26 08:54:28;;;;;;;2.58;2.08;;;12.90;98.90;;;;;;5064508;28;20032;-53
2021/03/26 08:57:02;;;;;;;4.65;2.28;;;12.90;98.70;;;;;;5065007;28;20035;-53
2021/03/26 08:59:30;;;;;;;;;;;12.90;98.50;;;;;;5065725;28;20066;-53
2021/03/26 09:02:28;;;;;;;7.03;2.70;;;12.90;98.40;;;;;;5065141;28;19904;-52
2021/03/26 09:05:12;;;;;;;3.17;2.25;;;13.00;98.80;;;;;;5064741;28;20423;-53
2021/03/26 09:08:06;;;;;;;3.75;2.30;;;13.10;98.40;;;;;;5063210;28;20418;-52
2021/03/26 09:10:50;;;;;;;4.10;2.85;;;13.20;98.60;;;;;;5064733;28;20069;-52
2021/03/26 09:13:36;;;;;;;3.17;2.30;;;13.20;98.30;;;;;;5064364;28;20092;-49
2021/03/26 09:16:16;;;;;;;7.75;3.00;;;13.10;98.20;;;;;;5062921;28;20107;-53
2021/03/26 09:18:47;;;;;;;3.10;2.45;;;13.10;98.20;;;;;;5065129;28;20044;-53
2021/03/26 09:21:28;;;;;;;3.95;2.63;;;13.20;98.40;;;;;;5064408;28;20438;-53
2021/03/26 09:24:25;;;;;;;5.30;3.10;;;13.20;98.00;;;;;;5064321;28;20502;-49
2021/03/26 09:26:57;;;;;;;8.60;3.65;;;13.20;98.00;;;;;;5064666;28;20229;-51
2021/03/26 09:29:33;;;;;;;4.97;2.72;;;13.30;97.70;;;;;;5064032;28;20494;-52
2021/03/26 09:32:22;;;;;;;4.45;2.30;;;13.30;98.00;;;;;;5065162;28;20039;-51
2021/03/26 09:35:17;;;;;;;2.80;1.92;;;13.40;98.00;;;;;;5064207;28;20055;-52
2021/03/26 09:37:51;;;;;;;5.13;2.88;;;13.50;98.10;;;;;;5050489;28;20047;-49
2021/03/26 09:40:33;;;;;;;3.75;2.90;;;13.50;97.90;;;;;;5049211;28;20023;-53
2021/03/26 09:43:20;;;;;;;4.35;2.88;;;13.70;97.80;;;;;;5063460;28;20038;-51
2021/03/26 09:46:09;;;;;;;4.65;2.72;;;13.80;97.80;;;;;;5059031;28;20159;-51
2021/03/26 09:48:54;;;;;;;6.15;3.17;;;13.90;98.10;;;;;;5045964;28;20087;-51
2021/03/26 09:51:43;;;;;;;8.23;3.95;;;14.00;98.20;;;;;;5047699;28;21332;-50
2021/03/26 09:54:27;;;;;;;8.02;4.57;;;14.00;98.00;;;;;;5054961;28;20112;-51
2021/03/26 09:57:30;;;;;;;5.80;3.60;;;13.80;97.80;;;;;;5048766;28;20122;-48
2021/03/26 10:00:14;;;;;;;7.78;4.18;;;13.90;97.90;;;;;;5061836;28;20035;-51
2021/03/26 10:03:00;;;;;;;6.85;4.47;;;13.90;97.80;;;;;;5069769;28;20088;-52
2021/03/26 10:06:04;;;;;;;8.90;4.43;;;13.90;98.00;;;;;;5068501;28;20037;-48
2021/03/26 10:08:53;;;;;;;7.57;4.00;;;13.90;97.80;;;;;;5067574;28;20044;-49
2021/03/26 10:11:41;;;;;;;13.73;5.43;;;14.00;98.10;;;;;;5063506;28;20037;-51
2021/03/26 10:14:20;;;;;;;11.63;5.55;;;13.80;98.20;;;;;;5058126;28;20033;-50
2021/03/26 10:17:06;;;;;;;10.98;5.88;;;13.80;98.20;;;;;;5047920;28;20477;-50
2021/03/26 10:19:48;;;;;;;7.60;4.82;;;13.80;98.70;;;;;;5058701;28;20099;-51
2021/03/26 10:22:24;;;;;;;10.25;5.68;;;13.90;98.70;;;;;;5060040;28;20021;-50
2021/03/26 10:24:58;;;;;;;10.50;5.53;;;14.00;99.00;;;;;;5048987;28;20033;-53
2021/03/26 10:27:30;;;;;;;13.35;6.13;;;14.10;98.80;;;;;;5063712;28;20020;-53
2021/03/26 10:30:05;;;;;;;11.73;6.88;;;14.00;99.30;;;;;;5069059;28;20089;-50
2021/03/26 10:32:33;;;;;;;16.25;7.95;;;14.10;99.10;;;;;;5069024;28;20037;-51
2021/03/26 10:35:20;;;;;;;12.25;6.28;;;14.20;99.40;;;;;;5067759;28;20119;-52
2021/03/26 10:38:09;;;;;;;13.27;7.32;;;14.40;98.80;;;;;;5067893;28;20036;-52
2021/03/26 10:40:59;;;;;;;11.00;6.90;;;14.40;99.20;;;;;;5062222;28;20028;-50
2021/03/26 10:43:33;;;;;;;8.75;6.43;;;14.30;99.30;;;;;;5067811;28;20032;-52
2021/03/26 10:46:12;;;;;;;13.07;8.07;;;14.60;99.90;;;;;;5048098;28;20541;-50
2021/03/26 10:49:01;;;;;;;11.85;6.90;;;14.50;99.40;;;;;;5053655;28;20029;-51
2021/03/26 10:51:35;;;;;;;14.70;9.10;;;14.70;99.40;;;;;;5048026;28;20025;-50
2021/03/26 10:54:06;;;;;;;14.52;10.10;;;14.50;99.50;;;;;;5057468;28;20056;-49
2021/03/26 10:56:31;;;;;;;20.20;10.18;;;14.40;99.80;;;;;;5057213;28;20108;-53
2021/03/26 10:59:06;;;;;;;12.25;8.30;;;14.50;99.90;;;;;;5048600;28;20103;-52
2021/03/26 11:01:42;;;;;;;21.20;11.57;;;14.70;99.90;;;;;;5048074;28;20391;-52
2021/03/26 11:04:33;;;;;;;18.10;10.00;;;14.60;99.90;;;;;;5048248;28;20102;-51
2021/03/26 11:07:07;;;;;;;22.02;12.80;;;14.80;99.90;;;;;;5047136;28;20770;-51
2021/03/26 11:09:56;;;;;;;20.30;12.52;;;14.80;99.90;;;;;;5047989;28;20446;-53
2021/03/26 11:12:45;;;;;;;19.75;10.82;;;14.90;99.90;;;;;;5048185;28;20517;-52
2021/03/26 11:15:27;;;;;;;20.60;12.23;;;14.90;99.90;;;;;;5047676;28;20395;-51
2021/03/26 11:18:06;;;;;;;22.27;13.93;;;15.00;99.90;;;;;;5050556;28;20020;-52
2021/03/26 11:20:42;;;;;;;24.95;13.55;;;15.00;99.90;;;;;;5060570;28;20672;-52
2021/03/26 11:23:17;;;;;;;22.10;14.05;;;15.00;99.90;;;;;;5059712;28;20021;-52
2021/03/26 11:25:48;;;;;;;23.77;14.43;;;15.10;99.90;;;;;;5048452;28;20061;-52
2021/03/26 11:28:28;;;;;;;19.52;12.32;;;15.00;99.90;;;;;;5067341;28;20024;-49
2021/03/26 11:30:55;;;;;;;21.23;13.45;;;15.10;99.90;;;;;;5054882;28;20495;-50
2021/03/26 11:33:39;;;;;;;23.15;13.65;;;15.30;99.70;;;;;;5056704;28;20516;-51
2021/03/26 11:36:34;;;;;;;19.83;12.18;;;15.40;99.80;;;;;;5065587;28;20020;-49
2021/03/26 11:39:19;;;;;;;21.20;13.80;;;15.60;99.90;;;;;;5046127;28;20478;-52
2021/03/26 11:41:52;;;;;;;24.00;14.30;;;15.50;99.20;;;;;;5034483;28;20137;-50
2021/03/26 11:44:23;;;;;;;21.73;13.90;;;15.50;99.70;;;;;;5044251;28;20447;-51
2021/03/26 11:46:55;;;;;;;20.90;14.02;;;15.60;99.50;;;;;;5045649;28;20032;-51
2021/03/26 11:49:55;;;;;;;18.55;12.52;;;15.50;99.50;;;;;;5054193;28;20082;-52
2021/03/26 11:52:23;;;;;;;18.02;11.40;;;15.90;99.80;;;;;;5064634;28;20458;-52
2021/03/26 11:55:06;;;;;;;22.08;13.20;;;16.10;99.50;;;;;;5065525;28;20074;-50
2021/03/26 11:57:44;;;;;;;20.45;12.45;;;16.10;98.90;;;;;;5065130;28;20024;-52
2021/03/26 12:00:22;;;;;;;20.60;11.02;;;16.10;99.10;;;;;;5065299;28;20521;-49
2021/03/26 12:03:13;;;;;;;14.45;9.80;;;16.40;99.40;;;;;;5065538;28;20027;-49
2021/03/26 12:05:58;;;;;;;12.90;8.68;;;16.80;99.00;;;;;;5064048;28;20074;-50
2021/03/26 12:08:50;;;;;;;10.70;7.90;;;16.90;98.20;;;;;;5065284;28;20078;-53
2021/03/26 12:11:23;;;;;;;18.20;10.23;;;17.00;96.60;;;;;;5065024;28;20012;-49
2021/03/26 12:14:08;;;;;;;11.85;8.15;;;17.00;96.90;;;;;;5065200;28;20411;-50
2021/03/26 12:16:44;;;;;;;13.43;8.48;;;17.10;96.90;;;;;;5050358;28;20025;-53
2021/03/26 12:19:18;;;;;;;15.10;7.90;;;17.20;96.90;;;;;;5064196;28;20067;-50
2021/03/26 12:22:04;;;;;;;14.65;9.43;;;17.20;96.90;;;;;;5064913;28;20494;-53
2021/03/26 12:24:46;;;;;;;14.75;7.72;;;17.20;96.70;;;;;;5048979;28;20279;-53
2021/03/26 12:27:34;;;;;;;12.95;7.80;;;17.50;96.60;;;;;;5057288;28;20040;-53
2021/03/26 12:30:13;;;;;;;13.20;7.82;;;17.60;97.10;;;;;;5044686;28;20029;-51
2021/03/26 12:33:09;;;;;;;15.18;7.78;;;17.50;96.90;;;;;;5054329;28;20079;-51
2021/03/26 12:35:59;;;;;;;12.02;7.53;;;17.80;96.40;;;;;;5044221;28;20384;-52
2021/03/26 12:38:37;;;;;;;15.50;7.75;;;17.90;96.10;;;;;;5044349;28;20036;-49
2021/03/26 12:41:07;;;;;;;12.65;8.15;;;18.00;95.90;;;;;;5044449;28;20029;-52
2021/03/26 12:43:43;;;;;;;10.05;7.03;;;18.00;96.20;;;;;;5056050;28;20509;-53
2021/03/26 12:46:19;;;;;;;10.23;6.57;;;18.10;95.30;;;;;;5064441;28;20028;-53
2021/03/26 12:49:00;;;;;;;11.07;8.07;;;18.20;95.60;;;;;;5050036;28;20535;-53
2021/03/26 12:51:25;;;;;;;11.02;7.10;;;18.00;94.80;;;;;;5043823;28;20044;-51
2021/03/26 12:54:17;;;;;;;10.68;7.18;;;18.20;94.80;;;;;;5048373;28;20029;-49
2021/03/26 12:57:12;;;;;;;12.10;7.88;;;18.30;95.10;;;;;;5044179;28;20473;-52
2021/03/26 12:59:48;;;;;;;12.02;8.90;;;18.40;93.90;;;;;;5056006;28;20085;-51
2021/03/26 13:02:32;;;;;;;11.27;7.78;;;18.30;93.70;;;;;;5062387;28;20156;-53
2021/03/26 13:05:00;;;;;;;15.93;8.82;;;18.10;94.30;;;;;;5056756;28;20101;-52
2021/03/26 13:07:43;;;;;;;10.77;7.00;;;18.00;93.90;;;;;;5066303;28;20033;-53
2021/03/26 13:10:38;;;;;;;14.43;8.75;;;18.00;93.90;;;;;;5044704;28;20568;-53
2021/03/26 13:13:32;;;;;;;11.93;6.90;;;17.80;94.20;;;;;;5045509;28;20487;-52
2021/03/26 13:16:08;;;;;;;17.63;7.72;;;17.90;94.50;;;;;;5047030;28;20150;-57
2021/03/26 13:18:57;;;;;;;15.70;8.27;;;18.30;94.40;;;;;;5062792;28;20025;-58
2021/03/26 13:21:23;;;;;;;11.35;7.63;;;18.30;94.20;;;;;;5050979;28;20046;-58
2021/03/26 13:23:55;;;;;;;10.20;6.28;;;18.20;93.90;;;;;;5064342;28;20418;-57
2021/03/26 13:26:25;;;;;;;14.13;8.43;;;18.30;94.50;;;;;;5062688;28;20033;-57
2021/03/26 13:29:13;;;;;;;16.02;8.60;;;18.10;94.30;;;;;;5047643;28;20439;-57
2021/03/26 13:31:41;;;;;;;12.73;8.48;;;18.20;94.60;;;;;;5044825;28;20025;-57
2021/03/26 13:34:31;;;;;;;12.35;7.57;;;18.40;94.80;;;;;;5046867;28;20029;-57
2021/03/26 13:37:18;;;;;;;11.50;7.53;;;18.70;94.60;;;;;;5044046;28;20044;-57
2021/03/26 13:39:48;;;;;;;14.23;7.32;;;18.70;95.10;;;;;;5048726;28;20031;-57
2021/03/26 13:42:52;;;;;;;13.02;8.60;;;18.80;95.00;;;;;;5043732;28;20033;-58
2021/03/26 13:45:20;;;;;;;14.88;9.55;;;18.50;95.40;;;;;;5042210;28;20499;-57
2021/03/26 13:47:52;;;;;;;13.50;8.95;;;18.60;95.30;;;;;;5043786;28;20029;-56
2021/03/26 13:50:25;;;;;;;13.15;9.23;;;18.60;94.80;;;;;;5042821;28;20025;-58